Time;durP1;ratioP1;P1;durP2;ratioP2;P2;SDS_P1;SDS_P2;PMS_P1;PMS_P2;Temp;Humidity;BMP_temperature;BMP_pressure;BME280_temperature;BME280_humidity;BME280_pressure;Samples;Min_cycle;Max_cycle;Signal;HPM_P1;HPM_P2
2021/07/01 00:01:34;;;;;;;57.65;38.78;;;;;;;;;;5008473;28;20056;-80
2021/07/01 00:04:20;;;;;;;56.45;36.97;;;;;;;;;;5014588;28;20095;-78
2021/07/01 00:07:06;;;;;;;57.92;36.35;;;;;;;;;;4999167;28;20538;-81
2021/07/01 00:09:52;;;;;;;66.15;42.72;;;;;;;;;;5000851;28;20427;-81
2021/07/01 00:12:37;;;;;;;65.97;43.90;;;;;;;;;;5005607;28;20071;-78
2021/07/01 00:15:28;;;;;;;68.22;45.50;;;;;;;;;;4991525;28;20865;-80
2021/07/01 00:18:14;;;;;;;76.43;50.13;;;;;;;;;;5013176;28;20454;-77
2021/07/01 00:20:59;;;;;;;68.40;44.15;;;;;;;;;;5003666;28;20136;-77
2021/07/01 00:23:45;;;;;;;52.85;36.65;;;;;;;;;;5019341;28;20130;-78
2021/07/01 00:26:31;;;;;;;52.00;34.85;;;;;;;;;;5022143;28;20056;-78
2021/07/01 00:29:17;;;;;;;58.20;40.53;;;;;;;;;;5025488;28;20048;-78
2021/07/01 00:32:02;;;;;;;71.03;44.53;;;;;;;;;;4998559;28;20047;-77
2021/07/01 00:34:47;;;;;;;68.18;44.80;;;;;;;;;;5025274;28;20060;-77
2021/07/01 00:37:33;;;;;;;66.50;46.47;;;;;;;;;;5008936;28;20056;-75
2021/07/01 00:40:18;;;;;;;66.72;45.25;;;;;;;;;;5024161;28;20040;-74
2021/07/01 00:43:04;;;;;;;59.78;43.55;;;;;;;;;;5028751;28;20057;-80
2021/07/01 00:45:51;;;;;;;59.33;41.60;;;;;;;;;;5029046;28;20273;-75
2021/07/01 00:48:36;;;;;;;62.47;41.10;;;;;;;;;;5029675;28;20826;-74
2021/07/01 00:51:22;;;;;;;60.00;40.90;;;;;;;;;;5028955;28;20043;-75
2021/07/01 00:54:08;;;;;;;65.15;45.17;;;;;;;;;;5030691;28;20107;-74
2021/07/01 00:56:54;;;;;;;76.05;53.25;;;;;;;;;;5027786;28;20040;-75
2021/07/01 00:59:39;;;;;;;114.80;86.65;;;;;;;;;;5015450;28;20104;-74
2021/07/01 01:02:25;;;;;;;115.03;84.40;;;;;;;;;;5030934;28;20048;-77
2021/07/01 01:05:13;;;;;;;119.15;90.75;;;;;;;;;;5034877;28;20039;-74
2021/07/01 01:07:59;;;;;;;118.75;88.90;;;;;;;;;;5023933;28;20036;-74
2021/07/01 01:10:45;;;;;;;114.95;85.68;;;;;;;;;;5026832;28;20036;-76
2021/07/01 01:13:30;;;;;;;108.30;79.80;;;;;;;;;;5037678;28;20052;-74
2021/07/01 01:16:15;;;;;;;95.35;72.95;;;;;;;;;;5030362;28;20112;-76
2021/07/01 01:19:01;;;;;;;93.60;72.03;;;;;;;;;;5008720;28;20999;-75
2021/07/01 01:21:49;;;;;;;100.63;75.03;;;;;;;;;;5041432;28;21836;-75
2021/07/01 01:24:34;;;;;;;95.88;75.45;;;;;;;;;;5042195;28;20048;-73
2021/07/01 01:27:21;;;;;;;86.38;64.80;;;;;;;;;;5041994;28;20048;-74
2021/07/01 01:30:08;;;;;;;83.38;63.13;;;;;;;;;;5032709;28;20044;-78
2021/07/01 01:32:53;;;;;;;86.93;66.65;;;;;;;;;;5020772;28;20057;-73
2021/07/01 01:35:39;;;;;;;76.00;54.05;;;;;;;;;;5045691;28;20750;-74
2021/07/01 01:38:25;;;;;;;76.53;54.45;;;;;;;;;;5025051;28;20036;-74
2021/07/01 01:41:10;;;;;;;66.13;50.70;;;;;;;;;;5039158;28;20069;-73
2021/07/01 01:43:56;;;;;;;72.22;52.15;;;;;;;;;;5023434;28;20510;-73
2021/07/01 01:46:41;;;;;;;67.38;49.10;;;;;;;;;;5018879;28;20048;-76
2021/07/01 01:49:27;;;;;;;60.72;45.13;;;;;;;;;;5022463;28;20059;-74
2021/07/01 01:52:12;;;;;;;68.78;50.30;;;;;;;;;;5028796;28;20106;-75
2021/07/01 01:55:00;;;;;;;57.88;44.47;;;;;;;;;;5030427;28;20059;-75
2021/07/01 01:57:50;;;;;;;61.75;45.75;;;;;;;;;;5029401;28;20040;-74
2021/07/01 02:00:35;;;;;;;64.47;47.38;;;;;;;;;;5026196;28;20044;-80
2021/07/01 02:03:20;;;;;;;68.68;49.17;;;;;;;;;;5043120;28;20048;-75
2021/07/01 02:06:06;;;;;;;72.88;50.45;;;;;;;;;;5037007;28;20044;-74
2021/07/01 02:08:51;;;;;;;72.55;50.50;;;;;;;;;;5035150;28;20043;-73
2021/07/01 02:11:36;;;;;;;78.13;61.05;;;;;;;;;;5031036;28;20061;-73
2021/07/01 02:14:21;;;;;;;77.95;58.88;;;;;;;;;;5032547;28;20072;-78
2021/07/01 02:17:07;;;;;;;88.10;67.35;;;;;;;;;;5035265;28;20052;-73
2021/07/01 02:19:54;;;;;;;84.45;64.13;;;;;;;;;;5019186;28;20036;-73
2021/07/01 02:22:40;;;;;;;87.40;63.92;;;;;;;;;;5033787;28;20053;-74
2021/07/01 02:25:25;;;;;;;81.25;59.53;;;;;;;;;;5030639;28;20416;-73
2021/07/01 02:28:10;;;;;;;83.88;64.35;;;;;;;;;;5034307;28;20591;-73
2021/07/01 02:30:55;;;;;;;81.10;64.18;;;;;;;;;;5033338;28;20047;-73
2021/07/01 02:33:41;;;;;;;83.18;67.82;;;;;;;;;;5029130;28;20040;-73
2021/07/01 02:36:26;;;;;;;78.80;59.83;;;;;;;;;;5031541;28;20526;-73
2021/07/01 02:39:12;;;;;;;81.00;62.33;;;;;;;;;;5014061;28;20045;-72
2021/07/01 02:41:56;;;;;;;78.07;59.33;;;;;;;;;;5032246;28;20048;-73
2021/07/01 02:44:42;;;;;;;81.97;59.30;;;;;;;;;;5032188;28;20349;-77
2021/07/01 02:47:27;;;;;;;91.80;72.03;;;;;;;;;;5034055;28;20052;-73
2021/07/01 02:50:13;;;;;;;95.85;78.28;;;;;;;;;;5019955;28;20225;-74
2021/07/01 02:52:58;;;;;;;99.25;80.85;;;;;;;;;;5021647;28;20044;-74
2021/07/01 02:55:43;;;;;;;98.75;82.50;;;;;;;;;;5032460;28;20059;-73
2021/07/01 02:58:29;;;;;;;82.35;65.40;;;;;;;;;;5031928;28;20415;-74
2021/07/01 03:01:15;;;;;;;78.65;60.38;;;;;;;;;;5021396;28;20044;-74
2021/07/01 03:04:00;;;;;;;82.60;61.03;;;;;;;;;;5020558;28;20048;-73
2021/07/01 03:06:45;;;;;;;98.25;75.22;;;;;;;;;;5032590;28;20481;-73
2021/07/01 03:09:30;;;;;;;97.25;77.00;;;;;;;;;;5043514;28;20048;-75
2021/07/01 03:12:15;;;;;;;103.32;80.30;;;;;;;;;;5032218;28;20057;-73
2021/07/01 03:15:02;;;;;;;91.22;68.60;;;;;;;;;;5031655;28;20048;-73
2021/07/01 03:17:47;;;;;;;81.30;60.75;;;;;;;;;;5032542;28;20354;-77
2021/07/01 03:20:33;;;;;;;72.60;53.83;;;;;;;;;;5033263;28;20040;-74
2021/07/01 03:23:18;;;;;;;80.00;60.92;;;;;;;;;;5038147;28;20040;-74
2021/07/01 03:26:03;;;;;;;76.47;56.15;;;;;;;;;;5024256;28;20045;-75
2021/07/01 03:28:48;;;;;;;74.50;58.72;;;;;;;;;;5032964;28;20044;-74
2021/07/01 03:31:34;;;;;;;68.80;50.70;;;;;;;;;;5026661;28;20035;-76
2021/07/01 03:34:20;;;;;;;57.53;43.55;;;;;;;;;;5024333;28;20411;-74
2021/07/01 03:37:06;;;;;;;64.70;48.38;;;;;;;;;;5022835;28;20040;-73
2021/07/01 03:39:51;;;;;;;68.18;50.22;;;;;;;;;;5030843;28;20044;-79
2021/07/01 03:42:36;;;;;;;60.80;44.25;;;;;;;;;;5027974;28;20059;-74
2021/07/01 03:45:21;;;;;;;59.67;45.20;;;;;;;;;;5032708;28;20044;-74
2021/07/01 03:48:09;;;;;;;61.17;46.47;;;;;;;;;;5032202;28;20048;-72
2021/07/01 03:50:54;;;;;;;65.97;47.70;;;;;;;;;;5031213;28;20044;-75
2021/07/01 03:53:39;;;;;;;62.03;46.80;;;;;;;;;;5002658;28;20412;-73
2021/07/01 03:56:24;;;;;;;61.17;45.78;;;;;;;;;;5026456;28;20051;-74
2021/07/01 03:59:11;;;;;;;59.42;46.50;;;;;;;;;;5029659;28;20047;-80
2021/07/01 04:01:56;;;;;;;57.30;45.00;;;;;;;;;;5032026;28;20067;-73
2021/07/01 04:04:41;;;;;;;59.63;44.40;;;;;;;;;;5029502;28;20040;-71
2021/07/01 04:07:27;;;;;;;56.88;44.08;;;;;;;;;;5031698;28;20036;-79
2021/07/01 04:10:16;;;;;;;58.17;46.20;;;;;;;;;;5023784;28;20044;-74
2021/07/01 04:13:00;;;;;;;60.53;47.63;;;;;;;;;;5032326;28;20064;-74
2021/07/01 04:15:46;;;;;;;55.78;43.55;;;;;;;;;;5027147;28;20072;-75
2021/07/01 04:18:31;;;;;;;55.92;40.10;;;;;;;;;;5032963;28;20048;-73
2021/07/01 04:21:19;;;;;;;58.22;42.85;;;;;;;;;;5030780;28;21162;-74
2021/07/01 04:24:05;;;;;;;53.88;40.58;;;;;;;;;;5032277;28;20048;-73
2021/07/01 04:26:50;;;;;;;53.65;39.03;;;;;;;;;;5028960;28;20036;-73
2021/07/01 04:29:35;;;;;;;54.83;38.50;;;;;;;;;;5030127;28;20045;-76
2021/07/01 04:32:22;;;;;;;48.50;39.08;;;;;;;;;;5026678;28;20075;-74
2021/07/01 04:35:07;;;;;;;55.28;37.35;;;;;;;;;;5030552;28;20064;-77
2021/07/01 04:37:52;;;;;;;50.53;34.58;;;;;;;;;;5035687;28;20036;-75
2021/07/01 04:40:40;;;;;;;55.05;38.05;;;;;;;;;;5028507;28;20387;-75
2021/07/01 04:43:25;;;;;;;53.83;36.58;;;;;;;;;;5024304;28;20064;-75
2021/07/01 04:46:10;;;;;;;48.45;37.97;;;;;;;;;;5028215;28;20048;-76
2021/07/01 04:48:55;;;;;;;52.50;34.33;;;;;;;;;;5033763;28;20048;-75
2021/07/01 04:51:42;;;;;;;49.97;36.63;;;;;;;;;;5032066;28;20072;-74
2021/07/01 04:54:27;;;;;;;55.30;38.22;;;;;;;;;;5028253;28;20063;-76
2021/07/01 04:57:12;;;;;;;48.63;33.63;;;;;;;;;;5032838;28;20511;-75
2021/07/01 04:59:57;;;;;;;51.95;36.03;;;;;;;;;;5033939;28;20057;-76
2021/07/01 05:02:43;;;;;;;54.00;37.80;;;;;;;;;;5030961;28;20554;-75
2021/07/01 05:05:28;;;;;;;64.13;40.78;;;;;;;;;;5040035;28;20434;-79
2021/07/01 05:08:15;;;;;;;64.50;45.58;;;;;;;;;;5032996;28;20045;-77
2021/07/01 05:11:01;;;;;;;45.35;32.70;;;;;;;;;;5031842;28;20065;-73
2021/07/01 05:13:46;;;;;;;50.55;32.20;;;;;;;;;;5038027;28;20506;-76
2021/07/01 05:16:33;;;;;;;50.33;34.63;;;;;;;;;;5035126;28;20056;-72
2021/07/01 05:19:18;;;;;;;52.88;36.30;;;;;;;;;;5035674;28;21411;-76
2021/07/01 05:22:04;;;;;;;52.85;33.88;;;;;;;;;;5030658;28;20056;-75
2021/07/01 05:24:49;;;;;;;51.50;32.35;;;;;;;;;;5033646;28;20051;-73
2021/07/01 05:27:35;;;;;;;47.63;32.85;;;;;;;;;;5033039;28;20131;-73
2021/07/01 05:30:20;;;;;;;47.13;34.33;;;;;;;;;;5037344;28;20802;-78
2021/07/01 05:33:06;;;;;;;47.60;33.65;;;;;;;;;;5032037;28;20048;-73
2021/07/01 05:35:51;;;;;;;45.70;30.98;;;;;;;;;;5033130;28;20048;-74
2021/07/01 05:38:36;;;;;;;51.15;33.65;;;;;;;;;;5032065;28;20056;-73
2021/07/01 05:41:21;;;;;;;56.05;34.30;;;;;;;;;;5038305;28;20040;-73
2021/07/01 05:44:07;;;;;;;45.40;31.83;;;;;;;;;;5033424;28;21108;-75
2021/07/01 05:46:52;;;;;;;51.00;29.90;;;;;;;;;;5036949;28;20055;-74
2021/07/01 05:49:38;;;;;;;43.63;28.98;;;;;;;;;;5031422;28;20044;-73
2021/07/01 05:52:26;;;;;;;42.72;28.63;;;;;;;;;;5032106;28;20036;-73
2021/07/01 05:55:12;;;;;;;41.15;31.25;;;;;;;;;;5035518;28;20531;-73
2021/07/01 05:57:57;;;;;;;35.58;26.23;;;;;;;;;;5039345;28;20407;-74
2021/07/01 06:00:42;;;;;;;56.30;35.13;;;;;;;;;;5033727;28;20049;-73
2021/07/01 06:03:28;;;;;;;72.45;38.00;;;;;;;;;;5034181;28;20044;-73
2021/07/01 06:06:16;;;;;;;57.40;32.58;;;;;;;;;;5033348;28;20044;-73
2021/07/01 06:09:04;;;;;;;44.85;31.38;;;;;;;;;;5034545;28;20412;-74
2021/07/01 06:11:56;;;;;;;37.03;26.23;;;;;;;;;;5031703;28;20419;-73
2021/07/01 06:14:42;;;;;;;61.88;26.33;;;;;;;;;;5035344;28;20064;-74
2021/07/01 06:17:30;;;;;;;50.63;28.05;;;;;;;;;;5034405;28;20060;-74
2021/07/01 06:20:15;;;;;;;44.28;25.90;;;;;;;;;;5036868;28;20060;-73
2021/07/01 06:23:02;;;;;;;41.97;28.48;;;;;;;;;;5031898;28;20053;-75
2021/07/01 06:25:48;;;;;;;55.05;25.02;;;;;;;;;;5033020;28;20040;-74
2021/07/01 06:28:40;;;;;;;58.35;24.85;;;;;;;;;;5034552;28;20036;-74
2021/07/01 06:31:25;;;;;;;57.05;26.45;;;;;;;;;;5032667;28;20044;-77
2021/07/01 06:34:12;;;;;;;26.08;18.10;;;;;;;;;;5036202;28;20048;-74
2021/07/01 06:37:02;;;;;;;24.00;18.10;;;;;;;;;;5034705;28;20048;-73
2021/07/01 06:39:50;;;;;;;29.40;17.80;;;;;;;;;;5034299;28;20055;-74
2021/07/01 06:42:41;;;;;;;20.30;14.60;;;;;;;;;;5032001;28;20444;-73
2021/07/01 06:45:27;;;;;;;23.02;16.73;;;;;;;;;;5037908;28;20044;-73
2021/07/01 06:48:14;;;;;;;23.98;16.83;;;;;;;;;;5038159;28;20048;-73
2021/07/01 06:51:00;;;;;;;32.42;21.67;;;;;;;;;;5039769;28;20350;-73
2021/07/01 06:53:46;;;;;;;19.85;14.35;;;;;;;;;;5043155;28;20044;-79
2021/07/01 06:56:38;;;;;;;25.42;18.48;;;;;;;;;;5043497;28;20067;-74
2021/07/01 06:59:24;;;;;;;23.45;17.48;;;;;;;;;;5024480;28;20051;-73
2021/07/01 07:02:10;;;;;;;26.83;17.48;;;;;;;;;;5042638;28;20048;-73
2021/07/01 07:04:55;;;;;;;21.05;15.95;;;;;;;;;;5036108;28;20047;-74
2021/07/01 07:07:41;;;;;;;22.45;16.27;;;;;;;;;;5042967;28;20039;-73
2021/07/01 07:10:27;;;;;;;20.75;14.90;;;;;;;;;;5042187;28;20048;-73
2021/07/01 07:13:13;;;;;;;21.38;15.85;;;;;;;;;;5037920;28;20072;-80
2021/07/01 07:15:59;;;;;;;19.33;14.93;;;;;;;;;;5043861;28;20047;-73
2021/07/01 07:18:44;;;;;;;24.40;16.42;;;;;;;;;;5041821;28;20036;-72
2021/07/01 07:21:34;;;;;;;24.33;16.40;;;;;;;;;;5037591;28;20477;-75
2021/07/01 07:24:21;;;;;;;33.40;20.48;;;;;;;;;;5028474;28;20044;-73
2021/07/01 07:27:08;;;;;;;24.58;15.50;;;;;;;;;;5042907;28;20044;-78
2021/07/01 07:29:53;;;;;;;18.80;15.50;;;;;;;;;;5041193;28;20055;-73
2021/07/01 07:32:39;;;;;;;21.30;14.88;;;;;;;;;;5030053;28;20437;-77
2021/07/01 07:35:24;;;;;;;18.80;13.98;;;;;;;;;;5023583;28;21598;-74
2021/07/01 07:38:10;;;;;;;26.80;19.25;;;;;;;;;;5041512;28;20418;-74
2021/07/01 07:40:55;;;;;;;19.30;14.02;;;;;;;;;;5041874;28;20040;-74
2021/07/01 07:43:41;;;;;;;21.50;14.63;;;;;;;;;;5040810;28;20510;-78
2021/07/01 07:46:28;;;;;;;20.58;15.48;;;;;;;;;;5039392;28;20044;-74
2021/07/01 07:49:13;;;;;;;26.55;16.85;;;;;;;;;;5041915;28;20044;-79
2021/07/01 07:52:03;;;;;;;23.15;17.08;;;;;;;;;;5028488;28;20047;-74
2021/07/01 07:54:50;;;;;;;26.30;18.13;;;;;;;;;;5037997;28;20036;-74
2021/07/01 07:57:36;;;;;;;22.73;16.30;;;;;;;;;;5039763;28;20415;-75
2021/07/01 08:00:21;;;;;;;21.42;15.45;;;;;;;;;;5040818;28;20056;-72
2021/07/01 08:03:07;;;;;;;24.55;17.33;;;;;;;;;;5038874;28;20055;-72
2021/07/01 08:05:55;;;;;;;21.45;15.15;;;;;;;;;;5041751;28;20653;-72
2021/07/01 08:08:43;;;;;;;20.55;13.68;;;;;;;;;;5041331;28;20434;-72
2021/07/01 08:11:30;;;;;;;20.67;13.73;;;;;;;;;;5022733;28;20048;-72
2021/07/01 08:14:16;;;;;;;19.33;14.27;;;;;;;;;;5014770;28;20044;-72
2021/07/01 08:17:02;;;;;;;22.75;17.10;;;;;;;;;;5046545;28;20379;-72
2021/07/01 08:19:47;;;;;;;26.50;18.88;;;;;;;;;;5041958;28;20048;-74
2021/07/01 08:22:32;;;;;;;26.20;18.77;;;;;;;;;;5040930;28;20040;-73
2021/07/01 08:25:18;;;;;;;20.90;14.60;;;;;;;;;;5038250;28;20048;-72
2021/07/01 08:28:03;;;;;;;21.13;14.80;;;;;;;;;;5042020;28;20043;-73
2021/07/01 08:30:49;;;;;;;26.27;18.38;;;;;;;;;;5041954;28;20056;-74
2021/07/01 08:33:36;;;;;;;21.27;14.55;;;;;;;;;;5040358;28;20036;-72
2021/07/01 08:36:22;;;;;;;24.92;17.92;;;;;;;;;;5039195;28;20056;-80
2021/07/01 08:39:08;;;;;;;22.48;17.40;;;;;;;;;;5041729;28;20044;-73
2021/07/01 08:41:56;;;;;;;25.55;17.08;;;;;;;;;;5041539;28;20040;-72
2021/07/01 08:44:45;;;;;;;27.63;20.77;;;;;;;;;;5041249;28;20080;-72
2021/07/01 08:47:34;;;;;;;23.23;17.75;;;;;;;;;;5038826;28;20052;-72
2021/07/01 08:50:19;;;;;;;22.45;15.60;;;;;;;;;;5042239;28;20044;-76
2021/07/01 08:53:09;;;;;;;20.02;14.63;;;;;;;;;;5011414;28;20048;-73
2021/07/01 08:55:54;;;;;;;20.52;14.70;;;;;;;;;;5039448;28;20525;-72
2021/07/01 08:58:44;;;;;;;18.98;13.23;;;;;;;;;;5042509;28;20048;-73
2021/07/01 09:01:29;;;;;;;17.30;13.32;;;;;;;;;;5031688;28;20044;-75
2021/07/01 09:04:17;;;;;;;20.85;14.90;;;;;;;;;;5037850;28;20063;-73
2021/07/01 09:07:04;;;;;;;24.05;16.50;;;;;;;;;;5039876;28;20044;-74
2021/07/01 09:09:56;;;;;;;19.92;14.15;;;;;;;;;;5041657;28;20044;-72
2021/07/01 09:12:43;;;;;;;19.85;15.02;;;;;;;;;;5042446;28;20052;-73
2021/07/01 09:15:28;;;;;;;23.52;14.75;;;;;;;;;;5041326;28;20376;-73
2021/07/01 09:18:14;;;;;;;19.83;14.02;;;;;;;;;;5032341;28;20044;-73
2021/07/01 09:20:59;;;;;;;24.45;14.77;;;;;;;;;;5039815;28;20040;-73
2021/07/01 09:23:47;;;;;;;19.15;13.85;;;;;;;;;;5044363;28;20044;-78
2021/07/01 09:26:32;;;;;;;21.85;14.85;;;;;;;;;;5038458;28;20072;-73
2021/07/01 09:29:18;;;;;;;21.55;13.80;;;;;;;;;;5041480;28;20395;-73
2021/07/01 09:32:04;;;;;;;28.83;17.10;;;;;;;;;;5040626;28;20462;-73
2021/07/01 09:34:50;;;;;;;24.92;16.42;;;;;;;;;;5035372;28;20040;-73
2021/07/01 09:37:43;;;;;;;19.92;15.27;;;;;;;;;;5040708;28;20416;-74
2021/07/01 09:40:29;;;;;;;24.33;16.35;;;;;;;;;;5044052;28;20044;-74
2021/07/01 09:43:15;;;;;;;20.27;14.98;;;;;;;;;;5046254;28;20040;-74
2021/07/01 09:46:03;;;;;;;23.92;14.05;;;;;;;;;;5044170;28;20048;-77
2021/07/01 09:48:50;;;;;;;25.42;15.25;;;;;;;;;;5042041;28;20120;-76
2021/07/01 09:51:36;;;;;;;23.30;15.10;;;;;;;;;;5029911;28;20036;-73
2021/07/01 09:54:22;;;;;;;23.83;15.85;;;;;;;;;;5048428;28;20047;-88
2021/07/01 09:57:32;;;;;;;25.63;15.57;;;;;;;;;;5046333;28;20064;-74
2021/07/01 10:00:20;;;;;;;23.85;16.27;;;;;;;;;;5045238;28;20064;-78
2021/07/01 10:03:06;;;;;;;27.75;17.98;;;;;;;;;;5045157;28;20060;-74
2021/07/01 10:05:52;;;;;;;25.75;17.52;;;;;;;;;;5041270;28;20044;-74
2021/07/01 10:08:39;;;;;;;27.27;17.15;;;;;;;;;;5044803;28;20434;-75
2021/07/01 10:11:30;;;;;;;26.58;18.02;;;;;;;;;;5040383;28;20050;-74
2021/07/01 10:14:15;;;;;;;26.58;17.65;;;;;;;;;;5034182;28;20313;-73
2021/07/01 10:17:07;;;;;;;29.10;18.35;;;;;;;;;;5045225;28;20047;-78
2021/07/01 10:20:08;;;;;;;25.55;17.80;;;;;;;;;;5045592;28;20040;-73
2021/07/01 10:22:54;;;;;;;30.45;18.20;;;;;;;;;;5053462;28;20260;-73
2021/07/01 10:25:39;;;;;;;29.42;20.75;;;;;;;;;;5042634;28;20056;-74
2021/07/01 10:28:25;;;;;;;40.83;28.08;;;;;;;;;;5040390;28;20044;-73
2021/07/01 10:31:13;;;;;;;51.78;33.83;;;;;;;;;;5042303;28;20044;-73
2021/07/01 10:33:59;;;;;;;56.22;40.08;;;;;;;;;;5043124;28;20044;-73
2021/07/01 10:36:44;;;;;;;69.85;40.42;;;;;;;;;;5043855;28;20056;-75
2021/07/01 10:39:29;;;;;;;66.80;37.97;;;;;;;;;;5041150;28;20415;-74
2021/07/01 10:42:15;;;;;;;93.93;52.38;;;;;;;;;;5043084;28;20040;-75
2021/07/01 10:45:08;;;;;;;97.15;57.97;;;;;;;;;;5043723;28;20047;-80
2021/07/01 10:47:56;;;;;;;95.72;57.03;;;;;;;;;;5035711;28;20040;-78
2021/07/01 10:50:41;;;;;;;105.97;59.60;;;;;;;;;;5039343;28;20048;-72
2021/07/01 10:53:30;;;;;;;105.57;60.30;;;;;;;;;;5039668;28;20040;-81
2021/07/01 10:56:21;;;;;;;98.05;57.63;;;;;;;;;;5035330;28;20049;-74
2021/07/01 10:59:07;;;;;;;110.13;63.05;;;;;;;;;;5030762;28;21312;-73
2021/07/01 11:01:54;;;;;;;100.80;58.13;;;;;;;;;;5029983;28;20052;-76
2021/07/01 11:04:48;;;;;;;97.60;53.13;;;;;;;;;;5033530;28;20582;-74
2021/07/01 11:07:43;;;;;;;69.65;39.47;;;;;;;;;;5031729;28;20048;-78
2021/07/01 11:10:36;;;;;;;64.57;34.00;;;;;;;;;;5029856;28;20040;-73
2021/07/01 11:13:24;;;;;;;62.53;34.65;;;;;;;;;;5031116;28;20045;-75
2021/07/01 11:16:12;;;;;;;56.70;32.35;;;;;;;;;;5032874;28;20680;-73
2021/07/01 11:18:58;;;;;;;57.95;34.78;;;;;;;;;;5030432;28;20041;-75
2021/07/01 11:21:50;;;;;;;67.60;38.30;;;;;;;;;;5033156;28;20407;-82
2021/07/01 11:24:38;;;;;;;84.30;45.53;;;;;;;;;;5021933;28;20499;-79
2021/07/01 11:27:24;;;;;;;63.42;36.40;;;;;;;;;;5034042;28;20407;-78
2021/07/01 11:30:20;;;;;;;42.70;27.85;;;;;;;;;;5032520;28;20048;-74
2021/07/01 11:33:12;;;;;;;45.08;23.77;;;;;;;;;;5029442;28;20051;-74
2021/07/01 11:36:14;;;;;;;39.78;21.63;;;;;;;;;;5031460;28;20044;-76
2021/07/01 11:39:06;;;;;;;69.93;21.65;;;;;;;;;;5044793;28;20044;-74
2021/07/01 11:41:52;;;;;;;42.40;19.60;;;;;;;;;;5032662;28;20526;-74
2021/07/01 11:44:40;;;;;;;32.13;18.48;;;;;;;;;;5030627;28;20048;-72
2021/07/01 11:47:26;;;;;;;36.70;19.23;;;;;;;;;;5029801;28;20051;-74
2021/07/01 11:50:11;;;;;;;37.05;19.27;;;;;;;;;;5040120;28;20057;-79
2021/07/01 11:52:57;;;;;;;34.85;20.90;;;;;;;;;;5030478;28;20486;-75
2021/07/01 11:55:42;;;;;;;90.07;25.48;;;;;;;;;;5032345;28;20056;-77
2021/07/01 11:58:28;;;;;;;38.72;21.60;;;;;;;;;;5027412;28;20044;-73
2021/07/01 12:01:12;;;;;;;41.55;22.52;;;;;;;;;;5028055;28;20055;-79
2021/07/01 12:03:57;;;;;;;35.13;20.13;;;;;;;;;;5031584;28;20048;-76
2021/07/01 12:06:50;;;;;;;52.33;21.77;;;;;;;;;;5030832;28;20064;-74
2021/07/01 12:09:39;;;;;;;37.30;21.15;;;;;;;;;;5032953;28;20052;-73
2021/07/01 12:12:27;;;;;;;98.78;24.95;;;;;;;;;;5029218;28;20076;-75
2021/07/01 12:15:14;;;;;;;32.92;17.50;;;;;;;;;;5019559;28;20052;-72
2021/07/01 12:18:03;;;;;;;42.28;21.92;;;;;;;;;;5026733;28;20469;-72
2021/07/01 12:20:55;;;;;;;36.10;19.50;;;;;;;;;;5035796;28;20039;-71
2021/07/01 12:23:50;;;;;;;63.03;23.17;;;;;;;;;;5031332;28;20044;-71
2021/07/01 12:26:38;;;;;;;35.60;19.90;;;;;;;;;;5038245;28;20044;-72
2021/07/01 12:29:41;;;;;;;60.13;21.70;;;;;;;;;;5040403;28;20044;-72
2021/07/01 12:32:26;;;;;;;26.90;17.92;;;;;;;;;;5052617;28;20044;-73
2021/07/01 12:35:30;;;;;;;31.00;20.77;;;;;;;;;;5041586;28;20411;-71
2021/07/01 12:38:14;;;;;;;44.75;23.55;;;;;;;;;;5038514;28;20052;-78
2021/07/01 12:41:00;;;;;;;44.15;21.65;;;;;;;;;;5040844;28;20036;-74
2021/07/01 12:43:47;;;;;;;33.85;20.67;;;;;;;;;;5040828;28;20309;-72
2021/07/01 12:46:42;;;;;;;30.25;20.52;;;;;;;;;;5040131;28;20933;-72
2021/07/01 12:49:34;;;;;;;28.40;18.60;;;;;;;;;;5038428;28;20051;-72
2021/07/01 12:52:21;;;;;;;30.42;19.40;;;;;;;;;;5041110;28;20044;-73
2021/07/01 12:55:07;;;;;;;28.25;18.17;;;;;;;;;;5040655;28;20040;-73
2021/07/01 12:57:52;;;;;;;29.10;18.95;;;;;;;;;;5040626;28;20048;-72
2021/07/01 13:00:37;;;;;;;23.30;17.08;;;;;;;;;;5030055;28;20044;-72
2021/07/01 13:03:27;;;;;;;29.83;20.75;;;;;;;;;;5041218;28;20052;-77
2021/07/01 13:06:14;;;;;;;33.58;20.90;;;;;;;;;;5039146;28;20040;-74
2021/07/01 13:08:59;;;;;;;30.33;20.65;;;;;;;;;;5039478;28;20040;-77
2021/07/01 13:11:44;;;;;;;36.20;23.15;;;;;;;;;;5043824;28;20330;-74
2021/07/01 13:14:31;;;;;;;35.90;24.00;;;;;;;;;;5044466;28;20044;-73
2021/07/01 13:17:18;;;;;;;43.00;26.58;;;;;;;;;;5043698;28;20068;-73
2021/07/01 13:20:05;;;;;;;40.13;25.38;;;;;;;;;;5044947;28;20419;-74
2021/07/01 13:22:50;;;;;;;39.50;25.88;;;;;;;;;;5043264;28;20044;-73
2021/07/01 13:25:35;;;;;;;42.65;27.33;;;;;;;;;;5044167;28;20047;-73
2021/07/01 13:28:21;;;;;;;52.83;30.88;;;;;;;;;;5043660;28;20040;-73
2021/07/01 13:31:07;;;;;;;50.47;30.50;;;;;;;;;;5043791;28;20067;-73
2021/07/01 13:34:05;;;;;;;68.25;39.90;;;;;;;;;;5044039;28;20040;-75
2021/07/01 13:36:50;;;;;;;86.57;52.28;;;;;;;;;;5042190;28;20052;-73
2021/07/01 13:39:35;;;;;;;91.70;54.72;;;;;;;;;;5034165;28;20048;-73
2021/07/01 13:42:28;;;;;;;90.57;52.38;;;;;;;;;;5035225;28;20044;-73
2021/07/01 13:45:17;;;;;;;81.30;51.08;;;;;;;;;;5043905;28;20036;-73
2021/07/01 13:48:04;;;;;;;75.97;47.28;;;;;;;;;;5043310;28;20052;-74
2021/07/01 13:50:49;;;;;;;70.47;43.33;;;;;;;;;;5042653;28;20048;-73
2021/07/01 13:53:37;;;;;;;66.68;42.15;;;;;;;;;;5042912;28;20040;-73
2021/07/01 13:56:22;;;;;;;67.85;42.63;;;;;;;;;;5041986;28;20040;-73
2021/07/01 13:59:08;;;;;;;58.50;37.97;;;;;;;;;;5040797;28;20514;-77
2021/07/01 14:01:52;;;;;;;65.28;38.80;;;;;;;;;;5041061;28;20403;-73
2021/07/01 14:04:44;;;;;;;61.53;36.95;;;;;;;;;;5041667;28;20039;-72
2021/07/01 14:07:30;;;;;;;63.70;37.90;;;;;;;;;;5039084;28;20044;-73
2021/07/01 14:10:15;;;;;;;66.82;40.83;;;;;;;;;;5034553;28;20039;-73
2021/07/01 14:13:01;;;;;;;67.72;38.60;;;;;;;;;;5035952;28;20056;-72
2021/07/01 14:15:48;;;;;;;66.13;40.20;;;;;;;;;;5031664;28;20047;-73
2021/07/01 14:18:38;;;;;;;67.03;40.90;;;;;;;;;;5014226;28;20510;-73
2021/07/01 14:21:36;;;;;;;70.03;39.63;;;;;;;;;;5017320;28;20040;-73
2021/07/01 14:24:23;;;;;;;56.55;37.25;;;;;;;;;;5040110;28;20422;-72
2021/07/01 14:27:09;;;;;;;56.75;35.15;;;;;;;;;;5038995;28;20434;-73
2021/07/01 14:29:54;;;;;;;51.75;33.78;;;;;;;;;;5043532;28;20442;-72
2021/07/01 14:32:41;;;;;;;50.03;33.42;;;;;;;;;;5042553;28;20036;-72
2021/07/01 14:35:29;;;;;;;45.40;31.67;;;;;;;;;;5041770;28;20052;-72
2021/07/01 14:38:15;;;;;;;42.65;29.60;;;;;;;;;;5042850;28;20056;-73
2021/07/01 14:41:04;;;;;;;47.97;29.08;;;;;;;;;;5042711;28;20498;-71
2021/07/01 14:43:54;;;;;;;35.97;27.33;;;;;;;;;;5041508;28;20052;-72
2021/07/01 14:46:45;;;;;;;41.17;28.35;;;;;;;;;;5042192;28;20036;-71
2021/07/01 14:49:38;;;;;;;41.00;29.15;;;;;;;;;;5036290;28;20040;-71
2021/07/01 14:52:33;;;;;;;42.67;30.85;;;;;;;;;;5023325;28;20048;-72
2021/07/01 14:55:19;;;;;;;42.67;30.80;;;;;;;;;;5029650;28;20048;-73
2021/07/01 14:58:07;;;;;;;43.10;29.25;;;;;;;;;;5042201;28;20055;-76
2021/07/01 15:00:56;;;;;;;48.45;31.65;;;;;;;;;;5042553;28;20510;-73
2021/07/01 15:03:42;;;;;;;48.90;31.92;;;;;;;;;;5042212;28;20439;-74
2021/07/01 15:06:34;;;;;;;50.22;32.40;;;;;;;;;;5042172;28;20502;-73
2021/07/01 15:09:19;;;;;;;48.83;33.30;;;;;;;;;;5042604;28;20040;-73
2021/07/01 15:12:13;;;;;;;53.92;33.78;;;;;;;;;;5031514;28;20052;-72
2021/07/01 15:14:58;;;;;;;51.75;34.45;;;;;;;;;;5039280;28;20044;-73
2021/07/01 15:17:45;;;;;;;44.78;29.58;;;;;;;;;;5037669;28;20056;-74
2021/07/01 15:20:33;;;;;;;50.58;31.83;;;;;;;;;;5042563;28;20529;-74
2021/07/01 15:23:21;;;;;;;56.20;34.95;;;;;;;;;;5040988;28;20397;-73
2021/07/01 15:26:05;;;;;;;61.42;36.83;;;;;;;;;;5039810;28;20040;-73
2021/07/01 15:28:53;;;;;;;57.45;35.95;;;;;;;;;;5041868;28;20052;-73
2021/07/01 15:31:39;;;;;;;59.67;35.63;;;;;;;;;;5031045;28;20043;-72
2021/07/01 15:34:24;;;;;;;52.88;34.53;;;;;;;;;;5023175;28;20064;-73
2021/07/01 15:37:09;;;;;;;56.13;34.90;;;;;;;;;;5017776;28;20052;-73
2021/07/01 15:39:55;;;;;;;57.05;37.97;;;;;;;;;;5034578;28;20071;-77
2021/07/01 15:42:41;;;;;;;66.47;37.38;;;;;;;;;;5002363;28;20048;-74
2021/07/01 15:45:26;;;;;;;62.28;36.90;;;;;;;;;;5017911;28;20056;-73
2021/07/01 15:48:12;;;;;;;60.17;36.88;;;;;;;;;;5033684;28;20044;-73
2021/07/01 15:50:58;;;;;;;58.15;34.90;;;;;;;;;;5040425;28;20060;-73
2021/07/01 15:53:43;;;;;;;52.15;32.55;;;;;;;;;;5032507;28;20048;-74
2021/07/01 15:56:46;;;;;;;61.15;37.72;;;;;;;;;;5038512;28;20048;-74
2021/07/01 15:59:31;;;;;;;53.75;34.17;;;;;;;;;;5039066;28;20044;-75
2021/07/01 16:02:17;;;;;;;56.15;35.28;;;;;;;;;;5039099;28;20040;-74
2021/07/01 16:05:02;;;;;;;57.70;37.20;;;;;;;;;;5038199;28;20255;-73
2021/07/01 16:07:48;;;;;;;58.95;38.03;;;;;;;;;;5037897;28;20043;-78
2021/07/01 16:10:33;;;;;;;59.38;37.22;;;;;;;;;;5022804;28;20044;-74